METAR AND TAF INFORMATION
METAR FOR RJTT
ADDS - METARS form results

(2231 UTC 24 April 2018)
Data provider http://aviationweather.gov/adds/metars/
 
METAR text: RJTT 242210Z 18019G29KT 4500 SHRA BR FEW005 SCT007 BKN013 19/19 Q1003 RMK 2ST005 4ST007 7CU013 A2963
Conditions at: RJTT (TOKYO INTL AIRPO, JP) observed 2210 UTC 24 April 2018
Temperature: 19.0°C (66°F)
Dewpoint: 19.0°C (66°F) [RH = 100%]
Pressure (altimeter): 29.62 inches Hg (1003.0 mb)
Winds: from the S (180 degrees) at 22 MPH (19 knots; 9.9 m/s)
gusting to 33 MPH (29 knots; 15.1 m/s)
Visibility: 2.80 miles (4.51 km)
Ceiling: 1300 feet AGL
Clouds: few clouds at 500 feet AGL
scattered clouds at 700 feet AGL
broken clouds at 1300 feet AGL
Weather: SHRA BR  (rain showers, mist)

METAR text: RJTT 242200Z 18022KT 4500 SHRA BR FEW005 SCT007 BKN013 19/19 Q1003 TEMPO 19025G35KT FEW005 BKN008 RMK 2ST005 4ST007 7CU013 A2964
Conditions at: RJTT (TOKYO INTL AIRPO, JP) observed 2200 UTC 24 April 2018
Temperature: 19.0°C (66°F)
Dewpoint: 19.0°C (66°F) [RH = 100%]
Pressure (altimeter): 29.62 inches Hg (1003.0 mb)
Winds: from the S (180 degrees) at 25 MPH (22 knots; 11.4 m/s)
Visibility: 2.80 miles (4.51 km)
Ceiling: 1300 feet AGL
Clouds: few clouds at 500 feet AGL
scattered clouds at 700 feet AGL
broken clouds at 1300 feet AGL
Weather: SHRA BR  (rain showers, mist)

Forecast for: RJTT (TOKYO INTL AIRPO, JP)
Text: TAF AMD RJTT 242004Z 2420/2600 19020KT 8000 -SHRA FEW008 BKN012
Forecast period: 2000 UTC 24 April 2018 to 0900 UTC 25 April 2018
Forecast type: FROM: standard forecast or significant change
Winds: from the S (190 degrees) at 23 MPH (20 knots; 10.4 m/s)
Visibility: 5 miles (8 km)
Ceiling: 1200 feet AGL
Clouds: few clouds at 800 feet AGL
broken clouds at 1200 feet AGL
Weather: -SHRA  (light rain showers)
Forecast for: RJTT (TOKYO INTL AIRPO, JP)
Text: TAF AMD RJTT 242004Z 2420/2600 19020KT 8000 -SHRA FEW008 BKN012
Forecast period: 2000 UTC 24 April 2018 to 0900 UTC 25 April 2018
Forecast type: FROM: standard forecast or significant change
Winds: from the S (190 degrees) at 23 MPH (20 knots; 10.4 m/s)
Visibility: 5 miles (8 km)
Ceiling: 1200 feet AGL
Clouds: few clouds at 800 feet AGL
broken clouds at 1200 feet AGL
Weather: -SHRA  (light rain showers)
Forecast for: RJTT (TOKYO INTL AIRPO, JP)
Text: TAF AMD RJTT 242004Z 2420/2600 19020KT 8000 -SHRA FEW008 BKN012
Forecast period: 2000 UTC 24 April 2018 to 0000 UTC 25 April 2018
Forecast type: TEMPORARY: The following changes expected for less than half the time period
Winds: from the S (190 degrees) at 28 MPH (24 knots; 12.5 m/s)
gusting to 39 MPH (34 knots; 17.7 m/s)
Visibility: 2.49 miles (4.01 km)
Ceiling: 800 feet AGL
Clouds: few clouds at 500 feet AGL
broken clouds at 800 feet AGL
Weather: SHRA BR  (rain showers, mist)
Forecast for: RJTT (TOKYO INTL AIRPO, JP)
Text: TAF AMD RJTT 242004Z 2420/2600 19020KT 8000 -SHRA FEW008 BKN012
Forecast period: 2000 UTC 24 April 2018 to 0000 UTC 25 April 2018
Forecast type: TEMPORARY: The following changes expected for less than half the time period
Winds: from the S (190 degrees) at 28 MPH (24 knots; 12.5 m/s)
gusting to 39 MPH (34 knots; 17.7 m/s)
Visibility: 2.49 miles (4.01 km)
Ceiling: 800 feet AGL
Clouds: few clouds at 500 feet AGL
broken clouds at 800 feet AGL
Weather: SHRA BR  (rain showers, mist)
Forecast for: RJTT (TOKYO INTL AIRPO, JP)
Text: TAF AMD RJTT 242004Z 2420/2600 19020KT 8000 -SHRA FEW008 BKN012
Forecast period: 0000 to 0400 UTC 25 April 2018
Forecast type: TEMPORARY: The following changes expected for less than half the time period
Winds: from the S (190 degrees) at 39 MPH (34 knots; 17.7 m/s)
gusting to 51 MPH (44 knots; 22.9 m/s)
Visibility: 1.86 miles (2.99 km)
Ceiling: 800 feet AGL
Clouds: few clouds at 500 feet AGL
broken clouds at 800 feet AGL
Weather: SHRA BR  (rain showers, mist)
Forecast for: RJTT (TOKYO INTL AIRPO, JP)
Text: TAF AMD RJTT 242004Z 2420/2600 19020KT 8000 -SHRA FEW008 BKN012
Forecast period: 0000 to 0400 UTC 25 April 2018
Forecast type: TEMPORARY: The following changes expected for less than half the time period
Winds: from the S (190 degrees) at 39 MPH (34 knots; 17.7 m/s)
gusting to 51 MPH (44 knots; 22.9 m/s)
Visibility: 1.86 miles (2.99 km)
Ceiling: 800 feet AGL
Clouds: few clouds at 500 feet AGL
broken clouds at 800 feet AGL
Weather: SHRA BR  (rain showers, mist)
Forecast for: RJTT (TOKYO INTL AIRPO, JP)
Text: TAF AMD RJTT 242004Z 2420/2600 19020KT 8000 -SHRA FEW008 BKN012
Forecast period: 0400 to 0600 UTC 25 April 2018
Forecast type: TEMPORARY: The following changes expected for less than half the time period
Winds: from the S (190 degrees) at 30 MPH (26 knots; 13.5 m/s)
gusting to 41 MPH (36 knots; 18.7 m/s)
Weather: no significant weather forecast for this period
Forecast for: RJTT (TOKYO INTL AIRPO, JP)
Text: TAF AMD RJTT 242004Z 2420/2600 19020KT 8000 -SHRA FEW008 BKN012
Forecast period: 0400 to 0600 UTC 25 April 2018
Forecast type: TEMPORARY: The following changes expected for less than half the time period
Winds: from the S (190 degrees) at 30 MPH (26 knots; 13.5 m/s)
gusting to 41 MPH (36 knots; 18.7 m/s)
Weather: no significant weather forecast for this period
Forecast for: RJTT (TOKYO INTL AIRPO, JP)
Text: TAF AMD RJTT 242004Z 2420/2600 19020KT 8000 -SHRA FEW008 BKN012
Forecast period: 0900 to 1200 UTC 25 April 2018
Forecast type: BECOMING: Conditions expected to become as follows by 1200 UTC 25 April 2018
Winds: from the S (180 degrees) at 7 MPH (6 knots; 3.1 m/s)
Visibility: 5 miles (8 km)
Ceiling: 1200 feet AGL
Clouds: few clouds at 800 feet AGL
broken clouds at 1200 feet AGL
Weather: -SHRA  (light rain showers)
Forecast for: RJTT (TOKYO INTL AIRPO, JP)
Text: TAF AMD RJTT 242004Z 2420/2600 19020KT 8000 -SHRA FEW008 BKN012
Forecast period: 0900 to 1200 UTC 25 April 2018
Forecast type: BECOMING: Conditions expected to become as follows by 1200 UTC 25 April 2018
Winds: from the S (180 degrees) at 7 MPH (6 knots; 3.1 m/s)
Visibility: 5 miles (8 km)
Ceiling: 1200 feet AGL
Clouds: few clouds at 800 feet AGL
broken clouds at 1200 feet AGL
Weather: -SHRA  (light rain showers)
Forecast for: RJTT (TOKYO INTL AIRPO, JP)
Text: TAF AMD RJTT 242004Z 2420/2600 19020KT 8000 -SHRA FEW008 BKN012
Forecast period: 1200 UTC 25 April 2018 to 0000 UTC 26 April 2018
Forecast type: BECOMING: Conditions expected to become as follows by 1500 UTC 25 April 2018
Winds: from the N (350 degrees) at 16 MPH (14 knots; 7.3 m/s)
Visibility: 5 miles (8 km)
Ceiling: 1200 feet AGL
Clouds: few clouds at 800 feet AGL
broken clouds at 1200 feet AGL
Weather: -SHRA  (light rain showers)
Forecast for: RJTT (TOKYO INTL AIRPO, JP)
Text: TAF AMD RJTT 242004Z 2420/2600 19020KT 8000 -SHRA FEW008 BKN012
Forecast period: 1200 UTC 25 April 2018 to 0000 UTC 26 April 2018
Forecast type: BECOMING: Conditions expected to become as follows by 1500 UTC 25 April 2018
Winds: from the N (350 degrees) at 16 MPH (14 knots; 7.3 m/s)
Visibility: 5 miles (8 km)
Ceiling: 1200 feet AGL
Clouds: few clouds at 800 feet AGL
broken clouds at 1200 feet AGL
Weather: -SHRA  (light rain showers)

 AIRPORT MAP

 RUNWAY INFORMATION
Runway 04 Runway length 8200 ft Runway width 200 ft
Runway elevation 19 ft Runway displaced threshold 0 ft Runway heading 35
Runway 22 Runway length 8200 ft Runway width 200 ft
Runway elevation 35 ft Runway displaced threshold 0 ft Runway heading 215
Runway 05 Runway length 8200 ft Runway width 200 ft
Runway elevation 46 ft Runway displaced threshold 0 ft Runway heading 57
Runway 23 Runway length 8200 ft Runway width 200 ft
Runway elevation 55 ft Runway displaced threshold 0 ft Runway heading 223
Runway 16L Runway length 9840 ft Runway width 200 ft
Runway elevation 22 ft Runway displaced threshold 0 ft Runway heading 150
Runway 34R Runway length 9840 ft Runway width 200 ft
Runway elevation 20 ft Runway displaced threshold 0 ft Runway heading 330
Runway 16R Runway length 9840 ft Runway width 200 ft
Runway elevation 20 ft Runway displaced threshold 0 ft Runway heading 150
Runway 34L Runway length 9840 ft Runway width 200 ft
Runway elevation 20 ft Runway displaced threshold 0 ft Runway heading 330

 AIRPORT FREQUENCIES
Type A/G Name NORTH PACI Frequency 126.9 MHZ
Type APP Name APP Frequency 119.1 MHZ
Type ATIS Name ATIS Frequency 128.8 MHZ
Type CLR Name CLNC DEL Frequency 121.825 MHZ
Type DEP Name Frequency 120.8 MHZ
Type DEP Name DEP Frequency 126 MHZ
Type GND Name Frequency 118.225 MHZ
Type GND Name Frequency 121.625 MHZ
Type GND Name GND Frequency 121.7 MHZ
Type GND Name Frequency 121.975 MHZ
Type TCA Name Frequency 119.45 MHZ
Type TCA Name TCA Frequency 124.75 MHZ
Type TWR Name TWR Frequency 118.1 MHZ
Type TWR Name Frequency 118.575 MHZ
Type TWR Name Frequency 118.725 MHZ
Type TWR Name Frequency 124.35 MHZ

 AIRPORT NEAR NAVIGATION AIDS
Type NDB Name Haneda Frequency 337 KHZ
Type VOR-DME Name Haneda Frequency 112200 KHZ
Type VOR-DME Name Kohtoh Frequency 115000 KHZ



Powered by Virtual Airlines Manager [v2.6.2]